createdAt,value
2023-02-03T00:03:52.143Z,0.00
2023-02-03T00:08:58.223Z,0.00
2023-02-03T00:14:01.075Z,0.00
2023-02-03T00:19:05.216Z,0.00
2023-02-03T00:24:08.555Z,0.00
2023-02-03T00:29:11.564Z,0.75
2023-02-03T00:34:15.810Z,0.00
2023-02-03T00:39:18.620Z,0.00
2023-02-03T00:44:22.751Z,0.00
2023-02-03T00:49:26.897Z,0.00
2023-02-03T00:54:31.638Z,0.00
2023-02-03T00:59:35.483Z,0.00
2023-02-03T01:04:40.219Z,0.00
2023-02-03T01:09:43.110Z,0.00
2023-02-03T01:14:47.176Z,0.00
2023-02-03T01:19:52.061Z,0.00
2023-02-03T01:24:54.815Z,0.00
2023-02-03T01:29:57.855Z,0.00
2023-02-03T01:35:03.190Z,0.00
2023-02-03T01:40:07.043Z,0.00
2023-02-03T01:45:13.554Z,0.00
2023-02-03T01:50:21.887Z,0.00
2023-02-03T01:55:32.757Z,0.00
2023-02-03T02:00:35.608Z,0.00
2023-02-03T02:05:44.433Z,0.00
2023-02-03T02:10:48.089Z,0.00
2023-02-03T02:15:59.592Z,0.00
2023-02-03T02:21:44.991Z,0.00
2023-02-03T02:26:57.995Z,0.00
2023-02-03T02:32:19.542Z,0.00
2023-02-03T02:37:34.455Z,0.00
2023-02-03T02:42:44.271Z,0.00
2023-02-03T02:47:49.033Z,0.00
2023-02-03T02:52:54.121Z,0.00
2023-02-03T02:58:02.305Z,0.00
2023-02-03T03:03:17.883Z,0.00
2023-02-03T03:08:26.034Z,0.00
2023-02-03T03:13:33.275Z,0.00
2023-02-03T03:18:43.617Z,0.00
2023-02-03T03:23:49.487Z,0.00
2023-02-03T03:28:55.633Z,0.00
2023-02-03T03:34:00.192Z,0.00
2023-02-03T03:39:09.031Z,0.00
2023-02-03T03:44:16.159Z,0.00
2023-02-03T03:49:23.785Z,0.00
2023-02-03T03:54:29.654Z,0.00
2023-02-03T03:59:38.451Z,0.00
2023-02-03T04:04:44.603Z,0.00
2023-02-03T04:09:47.539Z,0.00
2023-02-03T04:14:50.377Z,0.00
2023-02-03T04:19:54.502Z,0.00
2023-02-03T04:24:58.889Z,0.00
2023-02-03T04:30:01.697Z,0.00
2023-02-03T04:35:07.252Z,0.00
2023-02-03T04:40:11.241Z,0.00
2023-02-03T04:45:14.188Z,0.00
2023-02-03T04:50:18.429Z,0.00
2023-02-03T04:55:21.305Z,0.00
2023-02-03T05:00:24.518Z,0.50
2023-02-03T05:05:28.855Z,0.00
2023-02-03T05:10:31.709Z,0.00
2023-02-03T05:15:34.663Z,0.00
2023-02-03T05:20:38.881Z,0.00
2023-02-03T05:25:41.680Z,0.00
2023-02-03T05:30:44.547Z,0.00
2023-02-03T05:35:48.690Z,0.00
2023-02-03T05:41:10.067Z,0.00
2023-02-03T05:46:12.917Z,0.00
2023-02-03T05:51:17.106Z,0.00
2023-02-03T05:56:19.921Z,0.00
2023-02-03T06:01:22.775Z,0.00
2023-02-03T06:06:27.288Z,0.00
2023-02-03T06:11:30.375Z,0.00
2023-02-03T06:16:33.239Z,0.00
2023-02-03T06:21:38.042Z,0.00
2023-02-03T06:26:40.812Z,0.00
2023-02-03T06:31:43.707Z,0.00
2023-02-03T06:36:48.418Z,0.00
2023-02-03T06:41:51.872Z,0.00
2023-02-03T06:46:54.827Z,0.00
2023-02-03T06:51:59.022Z,0.00
2023-02-03T06:57:01.774Z,0.00
2023-02-03T07:02:05.565Z,0.00
2023-02-03T07:07:09.776Z,0.00
2023-02-03T07:12:12.804Z,0.00
2023-02-03T07:17:15.682Z,0.00
2023-02-03T07:22:19.867Z,0.00
2023-02-03T07:27:22.684Z,0.00
2023-02-03T07:32:25.535Z,0.00
2023-02-03T07:37:30.948Z,0.00
2023-02-03T07:42:33.839Z,0.00
2023-02-03T07:47:37.850Z,1.00
2023-02-03T07:52:41.961Z,1.00
2023-02-03T07:57:45.308Z,2.00
2023-02-03T08:02:48.442Z,4.00
2023-02-03T08:07:52.634Z,4.00
2023-02-03T08:12:56.704Z,2.50
2023-02-03T08:17:59.784Z,2.00
2023-02-03T08:23:04.066Z,1.00
2023-02-03T08:28:07.220Z,1.00
2023-02-03T08:33:10.290Z,1.00
2023-02-03T08:38:14.522Z,1.00
2023-02-03T08:43:17.511Z,2.00
2023-02-03T08:48:20.342Z,1.00
2023-02-03T08:53:24.538Z,1.00
2023-02-03T08:58:27.298Z,1.00
2023-02-03T09:03:30.055Z,1.00
2023-02-03T09:08:34.551Z,1.00
2023-02-03T09:13:38.830Z,1.00
2023-02-03T09:18:41.836Z,1.00
2023-02-03T09:23:46.580Z,1.75
2023-02-03T09:28:49.288Z,0.50
2023-02-03T09:33:52.204Z,0.25
2023-02-03T09:38:57.639Z,1.00
2023-02-03T09:44:08.678Z,1.00
2023-02-03T09:49:18.641Z,1.00
2023-02-03T09:54:32.115Z,2.00
2023-02-03T09:59:36.430Z,0.00
2023-02-03T10:04:45.151Z,0.75
2023-02-03T10:10:03.045Z,0.50
2023-02-03T10:15:23.705Z,0.50
2023-02-03T10:20:36.312Z,0.00
2023-02-03T10:25:43.637Z,0.00
2023-02-03T10:30:51.128Z,0.25
2023-02-03T10:35:57.437Z,1.00
2023-02-03T10:41:01.823Z,2.00
2023-02-03T10:46:05.019Z,2.25
2023-02-03T10:51:16.728Z,4.00
2023-02-03T10:56:23.785Z,5.00
2023-02-03T11:01:29.126Z,6.00
2023-02-03T11:06:33.521Z,6.50
2023-02-03T11:11:41.525Z,8.00
2023-02-03T11:16:47.286Z,8.00
2023-02-03T11:21:53.131Z,6.25
2023-02-03T11:27:00.584Z,6.00
2023-02-03T11:32:07.662Z,6.25
2023-02-03T11:37:28.229Z,7.50
2023-02-03T11:42:32.476Z,5.00
2023-02-03T11:47:35.860Z,5.50
2023-02-03T11:52:51.437Z,5.25
2023-02-03T11:58:08.853Z,6.75
2023-02-03T12:03:44.927Z,5.00
2023-02-03T12:09:03.615Z,4.00
2023-02-03T12:14:24.559Z,5.00
2023-02-03T12:19:39.023Z,5.00
2023-02-03T12:24:53.754Z,4.00
2023-02-03T12:30:02.484Z,4.00
2023-02-03T12:35:16.738Z,3.75
2023-02-03T12:40:27.953Z,3.25
2023-02-03T12:45:37.740Z,3.25
2023-02-03T12:50:45.984Z,3.00
2023-02-03T12:55:55.755Z,3.25
2023-02-03T13:01:06.010Z,3.75
2023-02-03T13:06:15.958Z,3.25
2023-02-03T13:11:27.069Z,3.00
2023-02-03T13:16:37.156Z,2.50
2023-02-03T13:21:40.054Z,3.00
2023-02-03T13:27:00.867Z,3.00
2023-02-03T13:32:21.315Z,3.25
2023-02-03T13:38:05.555Z,2.75
2023-02-03T13:43:23.058Z,3.00
2023-02-03T13:48:36.748Z,2.00
2023-02-03T13:53:42.569Z,3.00
2023-02-03T13:59:00.509Z,3.00
2023-02-03T14:04:06.729Z,3.00
2023-02-03T14:09:22.733Z,2.75
2023-02-03T14:15:04.111Z,2.50
2023-02-03T14:20:39.361Z,2.00
2023-02-03T14:25:45.722Z,2.25
2023-02-03T14:31:12.606Z,2.00
2023-02-03T14:36:40.913Z,2.00
2023-02-03T14:41:56.734Z,2.25
2023-02-03T14:47:22.358Z,2.00
2023-02-03T14:52:59.443Z,1.75
2023-02-03T14:58:05.017Z,1.25
2023-02-03T15:03:25.215Z,1.25
2023-02-03T15:08:42.752Z,2.00
2023-02-03T15:13:45.563Z,2.00
2023-02-03T15:18:55.253Z,3.00
2023-02-03T15:24:00.366Z,4.00
2023-02-03T15:29:07.075Z,2.75
2023-02-03T15:34:19.861Z,3.00
2023-02-03T15:39:37.596Z,3.00
2023-02-03T15:44:48.407Z,3.00
2023-02-03T15:50:00.218Z,3.00
2023-02-03T15:55:19.506Z,2.25
2023-02-03T16:00:33.112Z,2.00
2023-02-03T16:05:38.081Z,3.00
2023-02-03T16:10:42.188Z,3.00
2023-02-03T16:15:45.196Z,3.00
2023-02-03T16:20:51.438Z,3.50
2023-02-03T16:26:21.156Z,2.25
2023-02-03T16:31:41.735Z,2.00
2023-02-03T16:37:03.186Z,3.25
2023-02-03T16:42:33.945Z,1.75
2023-02-03T16:47:57.318Z,2.00
2023-02-03T16:53:00.037Z,2.00
2023-02-03T16:58:04.176Z,2.00
2023-02-03T17:03:06.952Z,2.00
2023-02-03T17:08:10.504Z,1.75
2023-02-03T17:13:15.427Z,1.00
2023-02-03T17:18:18.247Z,1.75
2023-02-03T17:23:21.381Z,2.00
2023-02-03T17:28:25.746Z,1.75
2023-02-03T17:33:30.249Z,1.00
2023-02-03T17:38:33.605Z,1.00
2023-02-03T17:54:19.152Z,1.50
2023-02-03T17:59:23.329Z,0.75
2023-02-03T18:04:26.448Z,1.00
2023-02-03T18:09:29.290Z,0.50
2023-02-03T18:14:33.467Z,0.75
2023-02-03T18:19:36.195Z,0.25
2023-02-03T18:24:39.721Z,0.00
2023-02-03T18:29:44.687Z,0.00
2023-02-03T18:34:47.892Z,1.00
2023-02-03T18:39:50.702Z,0.25
2023-02-03T18:44:54.989Z,1.00
2023-02-03T18:49:57.861Z,1.00
2023-02-03T18:55:00.650Z,0.00
2023-02-03T19:00:05.677Z,0.50
2023-02-03T19:05:11.595Z,0.00
2023-02-03T19:10:14.357Z,0.00
2023-02-03T19:15:19.345Z,0.50
2023-02-03T19:20:22.119Z,0.00
2023-02-03T19:25:24.934Z,0.00
2023-02-03T19:30:29.674Z,0.25
2023-02-03T19:35:33.478Z,0.50
2023-02-03T19:40:36.598Z,0.25
2023-02-03T19:45:40.766Z,1.00
2023-02-03T19:50:45.870Z,0.00
2023-02-03T19:55:48.736Z,0.00
2023-02-03T20:00:52.994Z,0.00
2023-02-03T20:05:55.894Z,0.00
2023-02-03T20:10:58.724Z,0.00
2023-02-03T20:16:02.955Z,0.00
2023-02-03T20:21:06.580Z,0.00
2023-02-03T20:26:09.532Z,0.00
2023-02-03T20:31:14.569Z,0.25
2023-02-03T20:36:17.425Z,1.00
2023-02-03T20:41:20.218Z,0.50
2023-02-03T20:46:24.794Z,0.00
2023-02-03T20:51:29.202Z,0.00
2023-02-03T20:56:32.042Z,0.00
2023-02-03T21:01:46.453Z,0.00
2023-02-03T21:06:49.404Z,0.00
2023-02-03T21:11:53.058Z,0.00
2023-02-03T21:16:57.262Z,0.25
2023-02-03T21:22:02.690Z,0.00
2023-02-03T21:27:23.760Z,0.00
2023-02-03T21:32:37.259Z,0.00
2023-02-03T21:37:42.249Z,0.25
2023-02-03T21:42:46.235Z,0.00
2023-02-03T21:47:52.570Z,0.00
2023-02-03T21:52:55.514Z,0.00
2023-02-03T21:57:58.364Z,0.00
2023-02-03T22:03:08.078Z,0.00
2023-02-03T22:08:18.465Z,0.00
2023-02-03T22:13:21.373Z,0.00
2023-02-03T22:18:25.859Z,0.00
2023-02-03T22:23:28.621Z,0.00
2023-02-03T22:28:31.474Z,0.00
2023-02-03T22:33:36.571Z,0.00
2023-02-03T22:38:40.489Z,0.00
2023-02-03T22:43:43.248Z,0.00
2023-02-03T22:48:47.587Z,0.00
2023-02-03T22:53:50.431Z,0.00
2023-02-03T22:58:53.486Z,0.00
2023-02-03T23:03:57.539Z,0.00
2023-02-03T23:09:00.315Z,0.00
2023-02-03T23:14:03.415Z,0.00
2023-02-03T23:19:07.517Z,0.00
2023-02-03T23:24:10.396Z,0.00
2023-02-03T23:29:13.219Z,0.00
2023-02-03T23:34:34.675Z,0.00
2023-02-03T23:39:37.485Z,0.00
2023-02-03T23:44:40.245Z,0.00
2023-02-03T23:49:44.447Z,0.00
2023-02-03T23:54:47.222Z,0.00
2023-02-03T23:59:50.000Z,0.00
